x

8413320 - Bar Harbor, Me (atgm1) Weather Station

2:54 - Thu 2nd Apr 2015 All times are EDT. -4 hours from GMT.

  • Wind
    9mph, 13mph gusts
  • Sea Temp 34°f
  • Ar Temp 28°f
  • Sea Pressure 1019.5mb
  • 8413320 - Bar Harbor, Me
  • 8413320 - Bar Harbor, Me

More Historic Weather Station data

Upgrade to MSW Pro to gain access to the past 30 days of data for over 8000 Wavebouys and Weather Stations around the globe.

Join Pro

Comparision Forecast

View Surf forecast
   
Qui 04/02 2:54 9 13 mph 1019.5mb 34f 28f
2:48 9 15 mph 1019.5mb 34f 28f
2:42 10 14 mph 1019.5mb 34f 28f
2:36 9 13 mph 1019.4mb 34f 27f
2:30 8 11 mph 1019.5mb 34f 27f
2:24 8 10 mph 1019.5mb 34f 27f
2:18 8 11 mph 1019.4mb 34f 27f
2:12 7 11 mph 1019.4mb 34f 27f
2:06 6 11 mph 1019.4mb 34f 28f
2:00 8 13 mph 1019.4mb 34f 28f
1:54 9 14 mph 1019.5mb 34f 29f
1:48 9 13 mph 1019.5mb 34f 28f
1:42 10 15 mph 1019.5mb 34f 28f
1:36 9 14 mph 1019.5mb 34f 28f
1:30 8 13 mph 1019.5mb 34f 28f
1:24 8 14 mph 1019.4mb 34f 28f
1:18 9 13 mph 1019.4mb 34f 28f
1:12 8 13 mph 1019.3mb 34f 28f
1:06 8 11 mph 1019.2mb 34f 29f
1:00 8 11 mph 1019.1mb 34f 29f
12:54 9 13 mph 1019.1mb 34f 29f
12:48 9 11 mph 1019mb 34f 29f
12:42 9 13 mph 1018.9mb 34f 29f
12:36 9 11 mph 1018.8mb 34f 29f
12:30 10 13 mph 1018.8mb 34f 29f
12:24 9 13 mph 1018.8mb 34f 29f
12:18 9 11 mph 1018.8mb 34f 28f
12:12 9 11 mph 1018.8mb 34f 28f
12:06 9 11 mph 1018.8mb 34f 29f
12:00 9 11 mph 1018.9mb 34f 29f
Qua 04/01 11:54 9 11 mph 1018.8mb 34f 29f
11:48 9 13 mph 1018.8mb 34f 29f
11:42 10 14 mph 1018.8mb 34f 29f
11:36 11 14 mph 1018.9mb 34f 29f
11:30 11 14 mph 1018.8mb 34f 29f
11:24 11 15 mph 1018.9mb 34f 29f
11:18 11 14 mph 1018.9mb 34f 29f
11:12 10 15 mph 1018.9mb 34f 30f
11:06 13 16 mph 1018.8mb 34f 30f
11:00 14 17 mph 1018.8mb 34f 30f
10:54 16 21 mph 1018.8mb 34f 30f
10:48 17 21 mph 1018.7mb 34f 30f
10:42 17 23 mph 1018.6mb 34f 31f
10:36 17 21 mph 1018.6mb 34f 31f
10:30 16 22 mph 1018.6mb 34f 31f
10:24 16 21 mph 1018.6mb 34f 31f
10:18 13 15 mph 1018.6mb 34f 31f
10:12 13 17 mph 1018.5mb 34f 31f
10:06 15 17 mph 1018.5mb 34f 31f
10:00 14 16 mph 1018.5mb 34f 31f
9:54 14 17 mph 1018.4mb 34f 31f
9:48 13 17 mph - - 31f
9:42 13 14 mph - - 31f
9:36 13 15 mph - - 31f
9:30 13 16 mph - 34f -
9:24 11 15 mph - 34f -
9:18  -  mph - 34f -
9:12  -  mph - 34f -
9:06  -  mph - 34f -
9:00 13 15 mph 1017.7mb 34f 32f
8:54 14 17 mph 1017.6mb 34f 32f
8:48 14 17 mph 1017.5mb 35f 32f
8:42 13 17 mph 1017.5mb 35f 33f
8:36 14 17 mph 1017.4mb 35f 33f
8:30 15 18 mph 1017.2mb 34f 33f
8:24 16 20 mph 1017mb 34f 33f
8:18 15 18 mph 1016.8mb 34f 33f
8:12 16 20 mph 1016.7mb 34f 33f
8:06 17 22 mph 1016.6mb 34f 34f
8:00 18 22 mph 1016.4mb 34f 34f
7:54 15 16 mph 1016.3mb 34f 33f
7:48 14 16 mph 1016.2mb 34f 34f
7:42 11 14 mph 1016.2mb 34f 33f
7:36 10 14 mph 1016mb 35f 33f
7:30 10 14 mph 1015.9mb 35f 34f
7:24 11 14 mph 1015.7mb 35f 34f
7:18 11 16 mph 1015.5mb 35f 34f
7:12 11 16 mph 1015.3mb 35f 34f
7:06 14 20 mph 1015.2mb 35f 35f
7:00 16 22 mph 1015.1mb 35f 35f
6:54 18 22 mph 1015.1mb 35f 35f
6:48 16 25 mph 1015mb 35f 35f
6:42 18 22 mph 1014.9mb 35f 35f
6:36 20 23 mph 1014.8mb 35f 35f
6:30 20 25 mph 1014.7mb 35f 35f
6:24 21 24 mph 1014.5mb 35f 36f
6:18 17 24 mph 1014.4mb 35f 36f
6:12 20 23 mph 1014.2mb 35f 36f
6:06 18 26 mph 1014.2mb 35f 36f
6:00 21 25 mph 1014.1mb 35f 36f
5:54 20 22 mph 1014mb 35f 36f
5:48 16 18 mph 1013.9mb 35f 36f
5:42 15 16 mph 1013.8mb 35f 36f
5:36 14 20 mph 1013.8mb 35f 36f
5:30 15 20 mph 1013.7mb 35f 36f
5:24 18 23 mph 1013.5mb 35f 36f
5:18 14 18 mph 1013.5mb 35f 35f
5:12 16 22 mph 1013.4mb 35f 35f
5:06 16 22 mph 1013.3mb 35f 35f
5:00 17 22 mph 1013.4mb 35f 35f
4:54 15 22 mph 1013.3mb 35f 35f
4:48 16 21 mph 1013.3mb 35f 35f
4:42 20 24 mph 1013.2mb 35f 35f
4:36 16 22 mph 1013.2mb 35f 35f
4:30 18 22 mph 1013.1mb 35f 35f
4:24 18 23 mph 1013mb 35f 35f
4:18 16 21 mph 1013mb 35f 35f
4:12 20 25 mph 1012.9mb 35f 35f
4:06 18 24 mph 1012.8mb 35f 35f
4:00 21 29 mph 1012.8mb 35f 34f
3:54 22 26 mph 1012.7mb 35f 35f
3:48 20 24 mph 1012.6mb 35f 35f
3:42 18 25 mph 1012.6mb 35f 34f
3:36 20 25 mph 1012.5mb 35f 35f
3:30 20 23 mph 1012.5mb 35f 34f
3:24 20 24 mph 1012.5mb 34f 34f
3:18 18 26 mph 1012.4mb 34f 34f
3:12 22 28 mph 1012.4mb 34f 34f
3:06 22 26 mph 1012.3mb 34f 34f
3:00 17 26 mph 1012.2mb 34f 34f
2:54 23 26 mph 1012.1mb 34f 34f
2:48 21 25 mph 1012.1mb 34f 34f
2:42 20 23 mph 1012.1mb 34f 34f
2:36 21 26 mph 1012.1mb 34f 34f
2:30 21 26 mph 1012mb 34f 33f
2:24 21 29 mph 1011.9mb 34f 33f
2:18 21 28 mph 1011.9mb 34f 33f
2:12 22 28 mph 1011.8mb 34f 33f
2:06 22 37 mph 1011.7mb 34f 33f
2:00 25 30 mph 1011.8mb 34f 33f
1:54 20 26 mph 1011.8mb 34f 33f
1:48 25 30 mph 1011.9mb 34f 33f
1:42 18 26 mph 1011.8mb 34f 33f
1:36 20 25 mph 1011.7mb 34f 32f
1:30 18 23 mph 1011.7mb 34f 32f
1:24 20 29 mph 1011.8mb 34f 32f
1:18 18 28 mph 1011.7mb 34f 32f
1:12 20 29 mph 1011.7mb 34f 32f
1:06 17 25 mph 1011.7mb 34f 32f
1:00 20 23 mph 1011.7mb 33f 31f
12:54 17 22 mph 1011.7mb 34f 32f
12:48 20 26 mph 1011.8mb 33f 31f
12:42 16 23 mph 1011.8mb 33f 31f
12:36 22 25 mph 1011.9mb 33f 31f
12:30 13 25 mph 1011.9mb 33f 31f
12:24 14 25 mph 1011.9mb 33f 31f
12:18 18 23 mph 1012mb 33f 31f
12:12 21 25 mph 1012mb 33f 31f
12:06 20 23 mph 1012mb 33f 31f
12:00 13 18 mph 1012mb 33f 31f
11:54 13 18 mph 1012.1mb 33f 31f
11:48 14 17 mph 1012.1mb 33f 31f
11:42 11 17 mph 1012.1mb 33f 31f
11:36 15 20 mph 1012.2mb 33f 30f
11:30 11 18 mph 1012.2mb 33f 30f
11:24 16 21 mph 1012.3mb 33f 30f
11:18 15 20 mph 1012.4mb 33f 30f
11:12 17 24 mph 1012.5mb 33f 30f
11:06 15 21 mph 1012.7mb 33f 29f
11:00 17 23 mph 1012.7mb 33f 29f
10:54 16 18 mph 1012.8mb 33f 29f
10:48 14 17 mph 1012.8mb 33f 29f
10:42 14 20 mph 1012.9mb 33f 29f
10:36 13 16 mph 1013mb 33f 29f
10:30 14 18 mph 1013mb 33f 28f
10:24 13 16 mph 1013.1mb 33f 29f
10:18 13 18 mph 1013.2mb 33f 28f
10:12 15 20 mph 1013.2mb 33f 28f
10:06 16 21 mph 1013.2mb 33f 28f
10:00 18 21 mph 1013.2mb 33f 28f
9:54 17 21 mph 1013.2mb 33f 28f
9:48 14 21 mph 1013.2mb 33f 28f
9:42 15 18 mph 1013.2mb 33f 28f
9:36 14 20 mph 1013.3mb 33f 28f
9:30 13 17 mph 1013.2mb 33f 28f
9:24 13 16 mph 1013.2mb 33f 28f
9:18 14 17 mph 1013.1mb 33f 28f
9:12 11 16 mph 1013mb 33f 28f
9:06 11 16 mph 1013mb 33f 27f
9:00 14 18 mph 1013mb 33f 27f
8:54 13 16 mph 1013mb 33f 27f
8:48 11 15 mph 1012.9mb 33f 27f
8:42 11 15 mph 1012.9mb 33f 27f
8:36 8 11 mph 1012.9mb 33f 27f
8:30 10 16 mph 1012.9mb 33f 27f
8:24 11 17 mph 1012.8mb 33f 26f
8:18 11 16 mph 1012.8mb 33f 26f
8:12 10 14 mph 1012.7mb 33f 26f
8:06 11 14 mph 1012.7mb 33f 26f
8:00 9 14 mph 1012.7mb 33f 26f
7:54 10 15 mph 1012.7mb 34f 26f
7:48 10 14 mph 1012.6mb 34f 26f
7:42 10 13 mph 1012.5mb 33f 26f
7:36 9 13 mph 1012.4mb 33f 26f
7:30 9 13 mph 1012.3mb 33f 26f
7:24 8 13 mph 1012.3mb 33f 26f
7:18 9 14 mph 1012.1mb 33f 26f
7:12 10 14 mph 1012mb 33f 26f
7:06 10 14 mph 1012mb 33f 26f
7:00 10 13 mph 1011.9mb 33f 26f
6:54 10 13 mph 1011.8mb 33f 26f
6:48 11 14 mph 1011.7mb 34f 26f
6:42 10 14 mph 1011.6mb 33f 26f
6:36 10 13 mph 1011.6mb 34f 26f
6:30 9 14 mph 1011.4mb 34f 26f
6:24 9 13 mph 1011.3mb 34f 26f
6:18 10 14 mph 1011.2mb 34f 26f
6:06 9 11 mph 1011mb 34f 27f
6:00 8 11 mph 1010.9mb 34f 27f
5:54 8 11 mph 1010.7mb 34f 27f
5:48  -  mph - - 27f
5:42  -  mph - - 26f
5:36  -  mph - - 27f
5:30 8 11 mph 1010.4mb 34f 27f
5:24 7 9 mph 1010.2mb 34f 27f
5:18 7 9 mph 1010.2mb 34f 27f
5:12 7 9 mph 1010.1mb 34f 27f
5:06 7 9 mph 1010mb 34f 27f
5:00 6 8 mph 1009.9mb 34f 27f
4:54 7 11 mph 1009.8mb 34f 28f
4:48 7 9 mph 1009.8mb 34f 28f
4:42 8 13 mph 1009.7mb 34f 28f
4:36 9 13 mph 1009.5mb 34f 28f
4:30 9 13 mph 1009.4mb 34f 28f
4:24 11 14 mph 1009.3mb 34f 28f
4:18 11 14 mph 1009.3mb 34f 28f
4:12 10 13 mph 1009.2mb 34f 28f
4:06 10 13 mph 1009.2mb 34f 28f
4:00 10 14 mph 1009.1mb 34f 28f
3:54 9 13 mph 1009.1mb 34f 28f
3:48 10 13 mph 1009.1mb 34f 28f
3:42 10 13 mph 1008.9mb 34f 28f
3:36 10 11 mph 1008.9mb 34f 28f
3:30 8 13 mph 1008.8mb 34f 28f
3:24 10 13 mph 1008.7mb 34f 29f
3:18 9 11 mph 1008.6mb 34f 29f
3:12 9 13 mph 1008.6mb 34f 29f
3:06 10 14 mph 1008.5mb 34f 29f
3:00  -  mph 1008.6mb 34f 29f
2:54 11 15 mph 1008.5mb 34f 29f
2:48 11 14 mph - - -
2:42 10 14 mph - - -
2:36 11 14 mph - - -
2:24 11 15 mph 1008.7mb 34f 30f
2:18 9 14 mph 1008.7mb 34f 30f
2:12 11 15 mph 1008.7mb 34f 30f
2:06 10 14 mph 1008.8mb 35f 30f
2:00 10 14 mph 1008.7mb 34f 30f
1:54 11 15 mph 1008.7mb 34f 30f
1:48 11 14 mph 1008.7mb 34f 30f
1:42 11 15 mph 1008.6mb 34f 31f
1:36 11 14 mph 1008.6mb 34f 31f
1:30 10 13 mph 1008.5mb 34f 31f
1:24 10 13 mph 1008.4mb 34f 31f
1:18 8 10 mph 1008.4mb 34f 31f
1:12 8 11 mph 1008.5mb 34f 31f
1:06 9 14 mph 1008.5mb 34f 31f
1:00 9 11 mph 1008.6mb 34f 31f
12:54 8 13 mph 1008.6mb 34f 32f
12:48 9 15 mph 1008.6mb 34f 32f
12:42 11 15 mph 1008.6mb 34f 32f
12:36 13 15 mph 1008.6mb 34f 32f
12:30 13 16 mph 1008.6mb 34f 32f
12:24 13 16 mph 1008.5mb 34f 32f
12:18 13 16 mph 1008.5mb 34f 32f
12:12 10 15 mph 1008.5mb 34f 33f
12:06 10 16 mph 1008.4mb 34f 33f
12:00 9 11 mph 1008.4mb 34f 33f
Ter 03/31 11:54 9 11 mph 1008.4mb 34f 33f
11:48 10 13 mph 1008.4mb 34f 33f
11:42 11 15 mph 1008.4mb 34f 33f
11:36 11 14 mph 1008.5mb 34f 33f
11:30 11 15 mph 1008.4mb 34f 33f
11:24 11 14 mph 1008.4mb 35f 34f
11:18 9 13 mph 1008.3mb 35f 34f
11:12 9 11 mph 1008.3mb 35f 34f
11:06 9 10 mph 1008.2mb 35f 34f
11:00 9 10 mph 1008.1mb 35f 34f
10:54 9 11 mph 1008mb 35f 34f
10:48 10 11 mph 1008mb 34f 35f
10:42 10 13 mph 1007.9mb 35f 35f
10:36 10 11 mph 1007.9mb 34f 35f
10:30 9 10 mph 1007.8mb 34f 35f
10:24 9 11 mph 1007.8mb 35f 35f
10:18 8 11 mph 1007.7mb 35f 36f
10:12 7 11 mph 1007.7mb 35f 36f
10:06 7 11 mph 1007.6mb 35f 36f
10:00 6 7 mph 1007.6mb 34f 36f
9:54 6 8 mph 1007.5mb 34f 36f
9:48 5 7 mph 1007.4mb 34f 36f
9:42 5 6 mph 1007.3mb 34f 36f
9:36 5 7 mph 1007.2mb 34f 36f
9:30 6 8 mph 1007.2mb 34f 36f
9:24 7 10 mph 1007.1mb 34f 37f
9:18 9 10 mph 1007.1mb 34f 37f
9:12 9 10 mph 1007mb 34f 37f
9:06 10 11 mph 1007mb 34f 37f
9:00 10 11 mph 1007mb 34f 37f
8:54 10 11 mph 1007mb 34f 37f
8:48 9 10 mph 1007mb 34f 37f
8:42 9 11 mph 1007mb 34f 37f
8:36 9 11 mph 1006.9mb 34f 37f
8:30 10 11 mph 1006.9mb 34f 37f
8:24 10 14 mph 1006.7mb 34f 37f
8:18 11 13 mph 1006.6mb 34f 37f
8:12 11 15 mph 1006.5mb 34f 38f
8:06 11 14 mph 1006.4mb 34f 38f
8:00 9 11 mph 1006.3mb 34f 38f
7:54 10 13 mph 1006.2mb 34f 38f
7:48 8 11 mph 1006.1mb 34f 38f
7:42 8 11 mph 1006mb 34f 38f
7:36 8 11 mph 1005.8mb 34f 38f
7:00 11 18 mph 1005mb 35f 39f
6:54 13 17 mph 1004.8mb 34f 40f
6:48 14 17 mph 1004.7mb 34f 40f
6:42 14 16 mph 1004.6mb 34f 40f
6:36 10 14 mph 1004.5mb 34f 40f
6:30 14 17 mph 1004.4mb 34f 41f
6:24 15 18 mph 1004.4mb 34f 41f
6:18 14 16 mph 1004.3mb 34f 40f
6:12 11 14 mph 1004.2mb 34f 41f
6:06 10 14 mph 1004mb 34f 40f
6:00 11 15 mph 1003.9mb 34f 40f
5:54 14 16 mph 1003.8mb 34f 41f
5:48 13 16 mph 1003.7mb 34f 41f
5:42 11 16 mph 1003.7mb 34f 41f
5:36 13 15 mph 1003.5mb 34f 42f
5:30 10 13 mph 1003.4mb 34f 42f
5:24 13 15 mph 1003.3mb 35f 42f
5:18 14 16 mph 1003.2mb 35f 42f
5:12 11 15 mph 1003.1mb 35f 42f
5:06 14 17 mph 1003mb 35f 42f
5:00 7 9 mph 1002.9mb 35f 43f
4:54 8 11 mph 1002.8mb 35f 43f
4:48 11 14 mph 1002.8mb 35f 42f
4:42 10 15 mph 1002.7mb 35f 42f
4:36 10 15 mph 1002.7mb 35f 42f
4:30 7 15 mph 1002.7mb 35f 42f
4:24 11 18 mph 1002.6mb 35f 42f
4:18 10 16 mph 1002.6mb 35f 42f
4:12 9 15 mph 1002.5mb 35f 43f
4:06 10 14 mph 1002.4mb 35f 43f
4:00 9 15 mph 1002.4mb 35f 43f
3:54 14 16 mph 1002.4mb 35f 42f
3:48 15 17 mph 1002.4mb 35f 42f
3:42 11 15 mph 1002.4mb 35f 42f
3:36 10 17 mph 1002.5mb 35f 42f
3:30 13 17 mph 1002.4mb 35f 42f
3:24 14 17 mph 1002.4mb 35f 42f
3:18 9 14 mph 1002.4mb 35f 42f
3:12 11 17 mph 1002.4mb 35f 42f
3:06 15 18 mph 1002.4mb 35f 42f
3:00 14 16 mph 1002.3mb 35f 42f
2:54 13 18 mph 1002.3mb 35f 42f
2:48 13 18 mph 1002.2mb 35f 42f
2:42 11 18 mph 1002.3mb 35f 42f
2:36 13 18 mph 1002.3mb 35f 42f
2:30 14 16 mph 1002.4mb 35f 42f
2:24 15 20 mph 1002.3mb 35f 42f
2:18 13 14 mph 1002.4mb 35f 41f
2:12 11 14 mph 1002.4mb 35f 41f
2:06 11 17 mph 1002.3mb 35f 41f
2:00 10 18 mph 1002.4mb 35f 40f
1:54 15 20 mph 1002.4mb 35f 42f
1:48 14 16 mph 1002.4mb 35f 41f
1:42 14 18 mph 1002.4mb 34f 41f
1:36 18 22 mph 1002.3mb 34f 41f
1:30 15 18 mph 1002.4mb 34f 41f
1:24 13 18 mph 1002.4mb 34f 41f
1:18 13 18 mph 1002.4mb 34f 42f
1:12 14 18 mph 1002.4mb 34f 41f
1:06 11 21 mph 1002.4mb 34f 41f
1:00 14 22 mph 1002.5mb 34f 41f
12:54 15 21 mph 1002.5mb 34f 40f
12:48 15 21 mph 1002.5mb 34f 40f
12:42 15 18 mph 1002.5mb 34f 40f
12:36 11 18 mph 1002.5mb 34f 41f
12:30 16 21 mph 1002.5mb 34f 40f
12:24 13 18 mph 1002.5mb 34f 40f
12:18 13 16 mph 1002.6mb 34f 39f
12:12 11 20 mph 1002.5mb 34f 40f
12:06 13 17 mph 1002.4mb 34f 39f
12:00 15 22 mph 1002.4mb 34f 40f
11:54 11 20 mph 1002.4mb 34f 39f
11:48 14 20 mph 1002.4mb 34f 40f
11:42 15 22 mph 1002.4mb 34f 39f
11:36 18 24 mph 1002.4mb 34f 39f
11:30 17 22 mph 1002.4mb 34f 39f
11:24 18 22 mph 1002.5mb 34f 39f
11:18 20 24 mph 1002.5mb 34f 39f
11:12 20 23 mph 1002.4mb 34f 39f
11:06 16 22 mph 1002.3mb 34f 39f
11:00 18 25 mph 1002.4mb 34f 39f
10:54 22 25 mph 1002.4mb 34f 39f
10:48 18 22 mph 1002.4mb 33f 39f
10:42 18 22 mph 1002.3mb 33f 38f
10:36 18 23 mph 1002.3mb 33f 39f
10:30 21 24 mph 1002.4mb 33f 38f
10:24 21 24 mph 1002.4mb 33f 38f
10:18 20 24 mph 1002.3mb 33f 38f
10:12 18 26 mph 1002.4mb 33f 38f
10:06 20 23 mph 1002.3mb 33f 38f
10:00 20 26 mph 1002.4mb 33f 38f
9:54 21 26 mph 1002.4mb 33f 38f
9:48 23 28 mph 1002.3mb 33f 38f
9:42 16 22 mph 1002.3mb 33f 38f
9:36 17 23 mph 1002.3mb 33f 38f
9:30 18 24 mph 1002.2mb 33f 37f
9:24 17 24 mph 1002.2mb 33f 37f
9:18 16 21 mph 1002.2mb 33f 37f
9:12 18 24 mph 1002.2mb 33f 37f
9:06 16 20 mph 1002.1mb 33f 37f
9:00 14 18 mph 1002.1mb 33f 37f
8:54 15 22 mph 1002mb 33f 37f
8:48 11 22 mph 1002mb 33f 37f
8:42 15 21 mph 1001.9mb 33f 37f
8:36 15 23 mph 1001.8mb 33f 37f
8:30 14 23 mph 1001.8mb 33f 37f
8:24 15 21 mph 1001.6mb 33f 37f
8:18 10 17 mph 1001.6mb 33f 37f
8:12 14 22 mph 1001.6mb 33f 37f
8:06 14 21 mph 1001.5mb 33f 36f
8:00 15 20 mph 1001.6mb 33f 36f
7:54 14 21 mph 1001.6mb 33f 36f
7:48 14 21 mph 1001.4mb 33f -
7:42 15 21 mph 1001.4mb 33f 36f
7:36 16 22 mph 1001.3mb 33f 36f
7:30 17 22 mph 1001.3mb 33f 36f
7:24 13 20 mph 1001.4mb 33f 35f
7:18 11 17 mph 1001.4mb 33f 35f
7:12 10 16 mph 1001.4mb 33f 35f
7:06 10 17 mph 1001.4mb 33f 35f
7:00 11 17 mph 1001.3mb 33f 35f
6:54 13 17 mph 1001.3mb 33f 35f
6:48 11 17 mph 1001.3mb 33f 35f
6:42 11 16 mph 1001.3mb 33f 35f
6:36 11 16 mph 1001.2mb 33f 35f
6:30 11 20 mph 1001.2mb 33f 35f
6:24 11 17 mph 1001.2mb 33f 35f
6:18 10 20 mph 1001.1mb 33f 35f
6:12 13 20 mph 1001mb 33f 35f
6:06 11 17 mph 1001mb 33f 35f
6:00 13 17 mph 1000.9mb 33f 35f
5:54 13 18 mph 1000.8mb 33f 35f
5:48 11 17 mph 1000.7mb 33f 35f
5:42 11 15 mph 1000.7mb 33f 34f
5:36 11 16 mph 1000.7mb 33f 34f
5:30 9 16 mph 1000.7mb 33f 34f
5:24 10 16 mph 1000.6mb 33f 34f
5:18 11 15 mph 1000.6mb 33f 34f
5:12 11 16 mph 1000.6mb 33f 34f
5:06 11 17 mph 1000.6mb 33f 34f
5:00 11 18 mph 1000.5mb 33f 35f
4:54 14 20 mph 1000.4mb 33f 35f
4:48 14 17 mph 1000.4mb 33f 35f
4:42 14 20 mph 1000.3mb 33f 35f
4:36 14 18 mph 1000.3mb 33f 35f
4:30 11 16 mph 1000.3mb 33f 35f
4:24 11 16 mph 1000.3mb 33f 35f
4:18 11 17 mph 1000.3mb 33f 35f
4:12 10 15 mph 1000.3mb 33f 35f
4:06 10 15 mph 1000.4mb 33f 35f
4:00 9 14 mph 1000.5mb 33f 35f
3:54 10 14 mph 1000.5mb 33f 35f
3:48 13 16 mph 1000.5mb 33f 35f
3:42 11 15 mph 1000.5mb 33f 35f
3:36 11 16 mph 1000.5mb 33f 35f
3:30 13 16 mph 1000.6mb 33f 35f
3:24 13 16 mph 1000.6mb 33f 35f
3:18 11 16 mph 1000.7mb 33f 35f
3:12 11 16 mph 1000.7mb 33f 35f
3:06 13 16 mph 1000.7mb 33f 35f
3:00 13 17 mph 1000.7mb 33f 36f
2:36 11 16 mph 1000.9mb 33f 36f
2:18 11 18 mph 1001.1mb 33f 36f
2:06 11 20 mph 1001.1mb 33f 37f
1:48 13 17 mph 1001.3mb 33f 37f
1:42 11 17 mph 1001.4mb 33f 37f
1:36 11 15 mph 1001.5mb 33f 37f
1:30 10 15 mph 1001.5mb 33f 37f
1:24 11 16 mph 1001.6mb 33f 37f
1:18 10 14 mph 1001.7mb 33f 37f
1:12 13 16 mph 1001.7mb 33f 37f
1:06 10 15 mph 1001.7mb 33f 37f
1:00 10 14 mph 1001.8mb 33f 37f
12:54 9 16 mph 1001.8mb 33f 37f
12:48 10 15 mph - - -
12:42 8 14 mph 1001.9mb 33f 37f
12:36 9 14 mph 1002mb 33f 37f
12:30 9 14 mph 1002.1mb 33f 37f
12:24 9 14 mph 1002.1mb 33f 37f
12:18 9 14 mph 1002.2mb 33f 37f
12:12 8 14 mph 1002.2mb 33f 37f
Seg 03/30 11:54 6 8 mph 1002.5mb 33f 37f
11:48 5 8 mph 1002.7mb 33f 37f
11:42 7 11 mph 1002.7mb 33f 37f
11:36 7 9 mph 1002.7mb 33f 38f
11:30 7 14 mph 1002.7mb 33f 38f
11:24 8 17 mph 1002.7mb 33f 38f
11:18 7 16 mph 1002.8mb 33f 38f
11:12 11 17 mph 1002.9mb 33f 38f
11:06 9 16 mph 1002.9mb 33f 38f
11:00 13 17 mph 1003mb 33f 38f
10:54 10 17 mph 1003mb 33f 38f
10:48 11 21 mph 1003mb 33f 38f
10:42 9 15 mph 1003.1mb 33f 38f
10:36 10 17 mph 1003.1mb 33f 38f
10:30 11 20 mph 1003.2mb 33f 38f
10:24 9 17 mph 1003.2mb 33f 38f
10:06 10 16 mph 1003.4mb 33f 38f
10:00 9 16 mph 1003.6mb 33f 37f
9:42 10 16 mph 1003.8mb 33f 37f
9:36 11 18 mph 1003.8mb 33f 37f
9:30 11 16 mph 1003.8mb 33f 37f
9:24 10 15 mph 1003.9mb 33f 37f
9:18 10 16 mph 1004mb 33f 37f
9:12 9 16 mph 1004mb 33f 37f
9:00 13 20 mph 1004.2mb - -
8:54 8 15 mph 1004.2mb 33f 37f
8:48 7 14 mph 1004.3mb 33f 37f
8:42 8 14 mph 1004.4mb 33f 37f
8:36 7 11 mph 1004.4mb 33f 37f
8:30 7 11 mph 1004.5mb 33f 37f
8:24 6 14 mph 1004.6mb 33f 37f
8:06 8 15 mph 1004.7mb 33f 37f
8:00 8 14 mph 1004.7mb 33f 37f
7:54 8 14 mph 1004.7mb 33f 37f
7:48 8 17 mph 1004.7mb 33f 37f
7:42 9 15 mph 1004.7mb 33f 37f
7:36 8 16 mph 1004.6mb 33f 37f
7:30 9 17 mph 1004.6mb 33f 36f
7:24 9 16 mph 1004.7mb 33f 36f
7:18 8 15 mph 1004.7mb 33f 36f
7:12 10 20 mph 1004.7mb 33f 36f
7:06 6 10 mph 1004.6mb 33f 36f
7:00 7 15 mph 1004.7mb 33f 36f
6:54 9 16 mph 1004.9mb 33f 36f
6:48 9 16 mph 1004.9mb 33f 36f
6:42 9 18 mph 1005mb 33f 36f
6:36 7 16 mph 1005.1mb 33f 36f
6:30 9 15 mph 1005mb 33f 36f
6:24 7 15 mph 1005.1mb 33f 36f
6:18 8 18 mph 1005.2mb 33f 36f
6:12 10 18 mph 1005.2mb 33f 36f
6:06 10 22 mph 1005.2mb 33f 36f
6:00 14 21 mph 1005.4mb 33f 36f
5:54 9 20 mph 1005.4mb 33f 36f
5:48 8 20 mph 1005.3mb - -
5:42 10 21 mph 1005.5mb 33f 36f
5:36 9 18 mph 1005.4mb 33f 36f
5:30 10 22 mph 1005.5mb 33f 36f
5:24 10 23 mph 1005.4mb 33f 36f
5:18 13 22 mph 1005.5mb 33f 36f
5:12 6 13 mph 1005.5mb 33f 36f
5:06 6 13 mph 1005.5mb 33f 36f
5:00 6 23 mph 1005.5mb 33f 36f
4:54 9 18 mph 1005.5mb 33f 36f
4:48 6 13 mph 1005.7mb 33f 36f
4:42 9 23 mph 1005.7mb 33f 36f
4:36 11 23 mph 1005.8mb 33f 36f
4:30 8 17 mph 1005.8mb 33f 36f
4:24 8 16 mph 1005.9mb 33f 36f
4:18 8 21 mph 1006mb 33f 36f
4:12 11 16 mph 1006mb 33f 36f
4:06 7 11 mph 1006.1mb 33f 36f
4:00 14 23 mph 1006.3mb 33f 36f
3:54 10 21 mph 1006.3mb 33f 36f
3:48 13 20 mph 1006.4mb 33f 36f
3:42 8 17 mph 1006.6mb 33f 36f
3:36 10 18 mph 1006.7mb 33f 36f
3:30 11 18 mph 1006.8mb 33f 36f
3:24 10 20 mph 1006.8mb 33f 36f
3:18 9 14 mph 1006.9mb 33f 36f
3:12 8 20 mph 1007mb 33f 36f
3:06 11 21 mph 1007.1mb 33f 35f
3:00 10 25 mph 1007.1mb 33f 35f
2:54 10 21 mph 1007.2mb 33f 35f
2:48 10 20 mph 1007.2mb 33f 35f
2:42 9 18 mph 1007.2mb 33f 35f
2:36 13 25 mph 1007.4mb 33f 35f
2:30 10 23 mph 1007.5mb 33f 35f
2:24 6 18 mph 1007.6mb 33f 36f
2:06 10 20 mph 1007.8mb 33f 36f
2:00 7 18 mph 1007.8mb 33f 37f
1:54 11 23 mph 1007.8mb 33f 37f
1:48 13 23 mph - - -
1:42 11 22 mph 1008mb 33f 38f
1:36 9 22 mph 1008.2mb 33f 39f
1:30 13 21 mph 1008.3mb 33f 39f
1:24 8 20 mph 1008.4mb 33f 39f
1:18 7 15 mph - - -
1:12 13 28 mph 1008.6mb 33f 39f
1:06 11 23 mph 1008.7mb 33f 39f
1:00 10 20 mph 1008.8mb 33f 39f
12:54 8 20 mph 1008.9mb 33f 39f
12:48 9 16 mph 1009mb 33f 39f
12:42 6 16 mph 1009.1mb 33f 39f
12:36 7 22 mph 1009.3mb 33f 39f
12:30 9 22 mph 1009.4mb 33f 39f
12:24 14 29 mph 1009.4mb 33f 38f
12:18 11 22 mph 1009.4mb 33f 38f
12:12 9 18 mph 1009.6mb 33f 38f
12:06 10 24 mph 1009.7mb 33f 38f
12:00 10 16 mph 1009.8mb 33f 38f
11:54 11 22 mph 1009.9mb 33f 38f
11:48 7 17 mph 1010mb 33f 38f
11:42 11 21 mph 1010mb 33f 38f
11:36 11 21 mph 1010.1mb 33f 38f
11:30 11 30 mph 1010.1mb 33f 38f
11:24 7 16 mph 1010.1mb 33f 38f
11:18 10 24 mph 1010.1mb 33f 38f
11:12 11 22 mph 1010.2mb 33f 38f
11:06 10 18 mph 1010.2mb 33f 38f
11:00 10 20 mph 1010.4mb 33f 38f
10:48 8 20 mph 1010.6mb 33f 38f
10:42 14 23 mph - - -
10:30 10 17 mph 1010.9mb 33f 38f
10:18 6 14 mph 1011.2mb 33f 38f
9:24 8 15 mph 1011.8mb 33f 38f
9:18 7 15 mph 1011.8mb 33f 38f
9:12 8 17 mph 1012mb 33f 38f
9:06 6 14 mph 1012mb 33f 38f
9:00 8 15 mph 1012.1mb 33f 38f
8:54 14 22 mph 1012.2mb 33f 38f
8:48 11 18 mph 1012.4mb 33f 38f
8:42 6 14 mph 1012.5mb 33f 38f
8:36 9 15 mph 1012.5mb 33f 38f
8:30 9 15 mph 1012.6mb 33f 38f
8:24 11 17 mph 1012.5mb 33f 38f
8:18 10 22 mph 1012.4mb 33f 38f
8:12 7 17 mph 1012.4mb 33f 38f
8:06 6 17 mph 1012.4mb 33f 38f
8:00 8 14 mph 1012.4mb 33f 37f
7:54 10 16 mph 1012.4mb 33f 37f
7:48 10 15 mph 1012.4mb 33f 37f
7:42 8 16 mph 1012.6mb 33f 36f
7:36 8 13 mph 1012.8mb 33f 36f
7:30 9 15 mph 1012.8mb 33f 36f
7:24 7 21 mph 1012.8mb 33f 36f
7:18 7 11 mph 1012.9mb 33f 36f
7:12 7 10 mph 1012.8mb 33f 36f
7:06 6 11 mph 1012.9mb 33f 36f
7:00 7 14 mph 1013mb 33f 36f
6:54 6 14 mph 1013.1mb 33f 36f
6:48 7 15 mph 1013.1mb 33f 36f
6:42 8 14 mph 1013.1mb 33f 36f
6:36 6 14 mph 1013.2mb 33f 35f
6:30 6 11 mph 1013.3mb 33f 35f
6:24 5 10 mph 1013.5mb 33f 35f
6:18 5 10 mph 1013.5mb 33f 35f
6:12 5 7 mph 1013.5mb 33f 35f
6:06 5 10 mph 1013.6mb 33f 35f
6:00 6 10 mph 1013.6mb 33f 35f
5:54 5 13 mph 1013.6mb 33f 34f
5:48 5 13 mph 1013.7mb 33f 34f
5:42 5 9 mph 1013.8mb 33f 34f
5:36 6 8 mph 1013.9mb 33f 34f
5:30 2 10 mph 1013.9mb 33f 34f
5:24 3 7 mph 1014mb 33f 34f
5:18 5 9 mph 1014.2mb 33f 34f
5:12 5 11 mph 1014.3mb 33f 34f
5:06 2 7 mph 1014.4mb 33f 34f
5:00 1 9 mph 1014.3mb 33f 34f
4:54 5 13 mph 1014.3mb 33f 34f
4:48 5 10 mph 1014.4mb 33f 35f
4:42 3 6 mph 1014.6mb 33f 34f
4:24 3 7 mph 1015mb 33f 34f
4:18 2 6 mph 1015mb 33f 34f
4:12  -  3 mph 1014.9mb 33f 34f
4:06 2 5 mph 1015.1mb 33f 34f
4:00 1 3 mph 1015.2mb 33f 34f
3:54 5 6 mph 1015.2mb 33f 34f
3:48  -  6 mph 1015.1mb 33f 34f
3:42 1 9 mph 1015.2mb 33f 34f
3:36 3 8 mph 1015.2mb 33f 34f
3:30 3 8 mph 1015.2mb 33f 34f
3:24 6 9 mph 1015.3mb 33f 34f
3:18 7 9 mph 1015.3mb 33f 34f
3:12 5 7 mph 1015.3mb 33f 34f
3:00 6 9 mph 1015.9mb 33f 34f
2:48 7 11 mph 1016.1mb 33f 34f
2:18 6 11 mph 1016.3mb 33f 34f
1:54 14 23 mph 1016.3mb 33f 34f
1:48 15 22 mph 1016.2mb 33f 34f
1:42 14 20 mph 1016.1mb 33f 35f
1:36 8 17 mph 1016.1mb 33f 34f
1:30 10 18 mph 1016.1mb 33f 34f
1:24 8 13 mph 1016.1mb 33f 34f
1:18 9 15 mph 1016.1mb 33f 35f
1:12 5 11 mph 1015.9mb 33f 35f
1:06 5 11 mph 1016mb 33f 34f
1:00 6 9 mph 1016.2mb 33f 34f
12:54 1 8 mph 1016.3mb 33f 34f
12:48 6 9 mph 1016.4mb 33f 34f
12:42 8 15 mph 1016.4mb 33f 34f
12:36 6 11 mph 1016.3mb 33f 34f
12:30 8 13 mph 1016.3mb 33f 34f
12:24 8 15 mph 1016.4mb 33f 34f
12:18 10 16 mph 1016.5mb 33f 34f
12:12 11 15 mph 1016.6mb 33f 34f
12:06 10 16 mph 1016.8mb 33f 34f
12:00 13 20 mph 1017mb 33f 34f
Dom 03/29 11:54 11 21 mph 1017.2mb 33f 33f
11:48 10 16 mph 1017.3mb 33f 34f
11:42 11 17 mph 1017.3mb 33f 33f
11:36 11 16 mph 1017.4mb 33f 33f
11:30 10 16 mph 1017.4mb 33f 33f
11:24 11 18 mph 1017.5mb 33f 33f
11:18 13 16 mph 1017.6mb 33f 33f
11:12 10 16 mph 1017.7mb 33f 33f
11:06 10 20 mph 1017.7mb 33f 33f
11:00 10 16 mph 1017.7mb 33f 33f
10:54 10 14 mph 1017.7mb 33f 33f
10:48 14 17 mph 1017.8mb 33f 33f
10:42 11 20 mph 1017.8mb 33f 33f
10:36 11 17 mph 1017.8mb 33f 33f
10:30 14 18 mph 1017.8mb 33f 33f
10:24 11 15 mph 1017.8mb 33f 33f
10:18 13 20 mph 1017.9mb 33f 33f
10:12 14 21 mph 1017.8mb 33f 34f
10:06 14 21 mph 1017.7mb 33f 34f
10:00 11 18 mph 1017.8mb 33f 33f
9:54 13 21 mph 1017.8mb 33f 34f
9:48 13 20 mph 1017.9mb 33f 33f
9:42 13 20 mph 1017.8mb 33f 33f
9:36 13 18 mph 1017.9mb 33f 33f
9:30 11 18 mph 1018mb 33f 33f
9:24 10 17 mph 1018mb 33f 33f
9:18 13 17 mph 1018mb 33f 33f
9:12 13 16 mph 1018mb 33f 33f
9:06 9 13 mph 1018mb 33f 33f
9:00 9 14 mph 1018.1mb 33f 33f
8:48 11 14 mph 1018.2mb 34f 33f
8:42 13 16 mph 1018.2mb 33f 33f
8:36 11 15 mph 1018.2mb 33f 33f
8:30 13 16 mph 1018.2mb 33f 33f
8:24 11 15 mph 1018.3mb 33f 33f
8:18 11 16 mph 1018.2mb 33f 33f
8:12 10 17 mph 1018.1mb 33f 33f
8:06 9 15 mph 1018.1mb 33f 33f
8:00 10 14 mph 1018mb 33f 33f
7:54 10 15 mph 1017.9mb 33f 33f
7:48 10 15 mph 1017.9mb 33f 33f
7:42 10 16 mph 1017.8mb 33f 33f
7:24 9 16 mph 1017.7mb 33f 33f
7:18 9 15 mph 1017.7mb 33f 33f
7:12 13 15 mph 1017.6mb 33f 33f
7:06 10 15 mph 1017.6mb 33f 33f
7:00 8 13 mph 1017.5mb 33f -
6:54 9 14 mph 1017.5mb 33f 34f
6:48 8 14 mph 1017.5mb 33f 34f
6:42 7 14 mph 1017.6mb 33f 35f
6:36 8 11 mph 1017.5mb 33f 35f
6:30 8 11 mph 1017.5mb 33f 36f
6:24 8 11 mph 1017.5mb 33f 36f
6:18 10 14 mph 1017.5mb 33f 36f
6:12 8 11 mph 1017.5mb 33f 37f
6:06 7 11 mph 1017.5mb 33f 37f
6:00 9 15 mph 1017.5mb 33f 37f
5:48 10 14 mph 1017.5mb 33f 37f
5:42 9 15 mph 1017.5mb 33f 37f
5:36 10 15 mph 1017.5mb 33f 37f
5:30 8 14 mph 1017.4mb 33f 38f
5:24 10 16 mph 1017.4mb 33f 37f
5:18 9 14 mph 1017.4mb 33f 37f
5:12 10 15 mph 1017.3mb 33f 37f
5:06 10 14 mph 1017.3mb 33f 38f
5:00 11 15 mph 1017.4mb 33f 37f
4:54 8 11 mph 1017.4mb 33f 38f
4:36 9 13 mph 1017.4mb 33f 38f
4:30 9 15 mph 1017.5mb 33f 38f
4:24 7 17 mph 1017.5mb 33f 38f
4:18 10 16 mph 1017.5mb 34f 37f
4:12 10 15 mph 1017.5mb 34f 37f
4:06 7 11 mph 1017.6mb 34f 38f
4:00 9 11 mph 1017.7mb 34f 37f
3:54 6 15 mph 1017.7mb 34f 37f
3:48 7 13 mph 1017.7mb 34f -
3:42 8 16 mph 1017.7mb 34f 37f
3:36 8 13 mph 1017.6mb 34f 37f
3:30 7 15 mph 1017.7mb 34f 37f
3:18 8 13 mph 1017.7mb 34f 36f
3:12 9 15 mph 1017.8mb 34f 37f
3:06 3 16 mph 1017.8mb 34f 36f
3:00 8 15 mph - - -
2:54 7 14 mph 1017.9mb 34f 36f
2:48 13 17 mph 1018mb 33f 36f
2:42 14 17 mph 1018.1mb 33f 36f
2:36 7 14 mph 1018.3mb 33f 36f
2:30 13 15 mph 1018.3mb 33f 36f
2:24 7 10 mph 1018.4mb 33f 35f
2:18 7 14 mph 1018.5mb 34f 35f
2:12 9 16 mph 1018.6mb 33f 35f
1:54 10 13 mph 1018.6mb 33f 34f
1:48 10 15 mph 1018.7mb 33f 34f
1:42 7 14 mph 1018.8mb 33f 34f
1:36 9 14 mph 1018.8mb 33f 34f
1:30 11 16 mph 1018.9mb 33f 34f
1:24 8 9 mph 1018.9mb 33f 33f
1:06 7 10 mph 1019.2mb 33f 33f
1:00 7 11 mph 1019.1mb 33f -
12:54 7 9 mph 1019.2mb 33f 33f
12:48 6 8 mph 1019.2mb 33f 32f
12:42 6 8 mph 1019.3mb 33f 31f
12:36 5 7 mph 1019.3mb 33f 31f
12:30 6 9 mph 1019.4mb 33f 31f
12:18 7 9 mph 1019.5mb 33f 31f
12:12 6 9 mph 1019.6mb 33f 31f
12:06 8 10 mph 1019.7mb 33f 30f
12:00 6 9 mph 1019.7mb 33f 30f
11:54 7 10 mph 1019.8mb 33f 30f
11:48 8 10 mph 1019.9mb 33f 30f
11:42 6 9 mph 1020mb 33f 30f
11:36 8 10 mph 1020mb 33f 29f
11:30 8 10 mph 1020.1mb 33f 30f
11:24 8 11 mph 1020.2mb 33f 29f
11:18 7 10 mph 1020.3mb 33f 29f
11:12 7 9 mph 1020.3mb 33f 29f
11:06 8 10 mph 1020.4mb 33f 29f
11:00 10 11 mph 1020.4mb 33f 29f
10:54 9 13 mph 1020.4mb 33f 29f
10:48 9 14 mph 1020.4mb 33f 28f
10:42 8 13 mph 1020.4mb 33f 28f
10:24 9 11 mph 1020.4mb 33f 28f
10:18 9 11 mph 1020.4mb 33f 27f
10:12 8 11 mph 1020.4mb 33f 27f
10:00 7 11 mph 1020.5mb 33f 27f
9:54 8 11 mph 1020.4mb 33f 27f
9:48 9 11 mph 1020.3mb 33f 27f
9:42 9 13 mph 1020.3mb 33f 26f
9:36 9 13 mph 1020.3mb 33f 26f
9:30 10 14 mph 1020.2mb 33f 26f
9:24 13 15 mph 1020.1mb 33f 26f
9:18 11 15 mph 1020.1mb 33f 26f
9:12 13 16 mph 1020mb 33f 26f
9:06 14 16 mph 1020mb 33f 26f
9:00 14 16 mph 1020mb 33f 25f
8:54 13 16 mph 1019.9mb 33f 25f
8:48 14 16 mph 1019.8mb 32f 25f
8:42 13 15 mph 1019.8mb 32f 25f
8:36 13 16 mph 1019.8mb 32f 25f
8:30 11 15 mph 1019.7mb 32f 25f
8:24 11 16 mph 1019.6mb 32f 25f
8:18 13 16 mph 1019.5mb 32f 25f
8:12 13 15 mph 1019.5mb 32f 24f
8:06 13 17 mph 1019.5mb 32f 24f
8:00 14 18 mph 1019.4mb 32f 24f
7:54 14 16 mph 1019.3mb 32f 24f
7:48 14 18 mph 1019.2mb 32f 24f
7:42 14 16 mph 1019.2mb 33f 24f